createdAt,value
2023-04-12T00:02:20.125Z,100729.44
2023-04-12T00:04:49.334Z,100719.03
2023-04-12T00:07:18.397Z,100719.84
2023-04-12T00:09:44.734Z,100713.63
2023-04-12T00:12:11.031Z,100708.50
2023-04-12T00:14:37.323Z,100702.56
2023-04-12T00:17:03.704Z,100695.25
2023-04-12T00:19:31.035Z,100692.69
2023-04-12T00:21:57.501Z,100690.28
2023-04-12T00:24:26.118Z,100686.91
2023-04-12T00:26:52.423Z,100677.38
2023-04-12T00:29:18.710Z,100667.72
2023-04-12T00:31:45.125Z,100666.13
2023-04-12T00:34:11.807Z,100651.13
2023-04-12T00:36:38.098Z,100650.16
2023-04-12T00:39:04.408Z,100648.59
2023-04-12T00:41:30.718Z,100638.66
2023-04-12T00:43:57.364Z,100631.09
2023-04-12T00:46:23.759Z,100632.38
2023-04-12T00:48:50.321Z,100620.06
2023-04-12T00:51:18.168Z,100621.63
2023-04-12T00:53:44.712Z,100616.16
2023-04-12T00:56:12.057Z,100609.94
2023-04-12T00:58:38.381Z,100599.94
2023-04-12T01:01:04.735Z,100596.22
2023-04-12T01:03:31.257Z,100591.69
2023-04-12T01:06:17.948Z,100595.13
2023-04-12T01:08:45.327Z,100587.88
2023-04-12T01:11:26.783Z,100576.38
2023-04-12T01:14:03.220Z,100571.72
2023-04-12T01:16:44.321Z,100561.97
2023-04-12T01:19:19.721Z,100558.59
2023-04-12T01:21:52.752Z,100553.06
2023-04-12T01:24:41.568Z,100550.47
2023-04-12T01:27:11.215Z,100554.47
2023-04-12T01:29:37.530Z,100548.47
2023-04-12T01:32:04.746Z,100531.69
2023-04-12T01:34:31.649Z,100527.09
2023-04-12T01:36:58.622Z,100513.41
2023-04-12T01:39:25.188Z,100523.88
2023-04-12T01:41:51.498Z,100519.16
2023-04-12T01:44:18.007Z,100512.22
2023-04-12T01:46:44.747Z,100506.44
2023-04-12T01:49:12.874Z,100508.47
2023-04-12T01:51:42.654Z,100497.47
2023-04-12T01:54:12.970Z,100495.50
2023-04-12T01:56:40.789Z,100483.63
2023-04-12T01:59:07.385Z,100486.47
2023-04-12T02:01:33.839Z,100478.44
2023-04-12T02:04:01.166Z,100478.78
2023-04-12T02:06:27.929Z,100473.94
2023-04-12T02:08:58.560Z,100473.63
2023-04-12T02:11:24.933Z,100465.25
2023-04-12T02:13:51.220Z,100463.66
2023-04-12T02:16:17.777Z,100449.56
2023-04-12T02:18:44.309Z,100447.19
2023-04-12T02:21:10.591Z,100437.16
2023-04-12T02:23:36.905Z,100432.84
2023-04-12T02:26:03.632Z,100434.88
2023-04-12T02:28:30.038Z,100424.34
2023-04-12T02:30:56.706Z,100421.25
2023-04-12T02:33:25.443Z,100419.09
2023-04-12T02:35:52.345Z,100408.22
2023-04-12T02:38:18.821Z,100421.88
2023-04-12T02:40:45.196Z,100405.41
2023-04-12T02:43:11.573Z,100396.25
2023-04-12T02:45:38.132Z,100386.50
2023-04-12T02:48:05.363Z,100382.63
2023-04-12T02:50:31.761Z,100374.63
2023-04-12T02:52:58.295Z,100360.13
2023-04-12T02:55:25.693Z,100347.50
2023-04-12T02:57:52.143Z,100342.81
2023-04-12T03:00:18.499Z,100339.09
2023-04-12T03:02:45.056Z,100331.94
2023-04-12T03:05:12.229Z,100320.91
2023-04-12T03:07:38.689Z,100319.41
2023-04-12T03:10:07.140Z,100313.13
2023-04-12T03:12:33.521Z,100313.66
2023-04-12T03:14:59.850Z,100305.50
2023-04-12T03:17:26.226Z,100299.03
2023-04-12T03:19:52.579Z,100305.38
2023-04-12T03:22:18.865Z,100296.09
2023-04-12T03:24:46.433Z,100289.00
2023-04-12T03:27:12.763Z,100285.63
2023-04-12T03:29:39.016Z,100286.69
2023-04-12T03:32:05.477Z,100273.81
2023-04-12T03:34:34.866Z,100267.94
2023-04-12T03:37:01.659Z,100263.22
2023-04-12T03:39:28.246Z,100264.31
2023-04-12T03:41:54.695Z,100252.28
2023-04-12T03:44:21.422Z,100262.63
2023-04-12T03:46:48.687Z,100247.31
2023-04-12T03:49:16.465Z,100257.03
2023-04-12T03:51:43.095Z,100248.53
2023-04-12T03:54:10.274Z,100250.44
2023-04-12T03:56:36.569Z,100235.75
2023-04-12T03:59:02.901Z,100236.31
2023-04-12T04:01:29.195Z,100232.59
2023-04-12T04:03:55.800Z,100228.78
2023-04-12T04:06:22.936Z,100225.72
2023-04-12T04:08:49.352Z,100233.66
2023-04-12T04:11:16.285Z,100225.34
2023-04-12T04:13:42.623Z,100229.22
2023-04-12T04:16:11.932Z,100211.56
2023-04-12T04:18:38.240Z,100202.81
2023-04-12T04:21:04.644Z,100199.47
2023-04-12T04:23:38.899Z,100199.03
2023-04-12T04:26:11.476Z,100189.53
2023-04-12T04:28:38.508Z,100189.38
2023-04-12T04:31:06.330Z,100182.66
2023-04-12T04:33:33.268Z,100180.34
2023-04-12T04:35:59.612Z,100186.56
2023-04-12T04:38:26.258Z,100182.03
2023-04-12T04:40:55.609Z,100178.91
2023-04-12T04:43:22.025Z,100189.31
2023-04-12T04:45:51.426Z,100178.03
2023-04-12T04:48:18.745Z,100178.53
2023-04-12T04:50:45.055Z,100168.28
2023-04-12T04:53:11.438Z,100168.03
2023-04-12T04:55:37.830Z,100165.09
2023-04-12T04:58:06.231Z,100160.94
2023-04-12T05:00:32.567Z,100155.38
2023-04-12T05:02:59.001Z,100151.38
2023-04-12T05:05:26.069Z,100140.66
2023-04-12T05:07:52.455Z,100138.81
2023-04-12T05:10:19.036Z,100133.69
2023-04-12T05:12:45.395Z,100132.91
2023-04-12T05:15:12.405Z,100127.31
2023-04-12T05:17:38.944Z,100120.19
2023-04-12T05:20:07.833Z,100127.09
2023-04-12T05:22:34.414Z,100131.63
2023-04-12T05:25:01.352Z,100123.72
2023-04-12T05:27:30.876Z,100115.03
2023-04-12T05:29:57.458Z,100117.13
2023-04-12T05:32:26.875Z,100111.47
2023-04-12T05:34:53.260Z,100117.28
2023-04-12T05:37:19.646Z,100110.47
2023-04-12T05:39:45.987Z,100113.00
2023-04-12T05:42:12.565Z,100097.22
2023-04-12T05:44:38.858Z,100095.44
2023-04-12T05:47:05.260Z,100100.81
2023-04-12T05:49:31.694Z,100092.78
2023-04-12T05:51:58.376Z,100096.66
2023-04-12T05:54:25.514Z,100092.94
2023-04-12T05:56:54.301Z,100102.31
2023-04-12T05:59:20.712Z,100102.34
2023-04-12T06:01:47.354Z,100096.97
2023-04-12T06:04:14.758Z,100089.69
2023-04-12T06:06:41.260Z,100091.16
2023-04-12T06:09:07.674Z,100082.38
2023-04-12T06:11:33.940Z,100072.88
2023-04-12T06:14:03.346Z,100072.41
2023-04-12T06:16:29.812Z,100056.75
2023-04-12T06:18:56.586Z,100055.69
2023-04-12T06:21:23.168Z,100050.38
2023-04-12T06:23:49.495Z,100046.38
2023-04-12T06:26:17.980Z,100043.06
2023-04-12T06:28:44.943Z,100042.06
2023-04-12T06:31:11.377Z,100034.03
2023-04-12T06:33:37.780Z,100029.81
2023-04-12T06:36:04.500Z,100021.72
2023-04-12T06:38:30.874Z,100020.72
2023-04-12T06:40:57.147Z,100009.09
2023-04-12T06:43:23.733Z,100010.41
2023-04-12T06:45:50.291Z,100006.53
2023-04-12T06:48:16.632Z,100003.72
2023-04-12T06:50:42.938Z,99991.53
2023-04-12T06:53:09.435Z,99973.09
2023-04-12T06:55:35.939Z,99975.06
2023-04-12T06:58:02.386Z,99964.31
2023-04-12T07:00:28.921Z,99959.97
2023-04-12T07:02:55.550Z,99961.16
2023-04-12T07:05:22.245Z,99958.00
2023-04-12T07:07:48.583Z,99954.38
2023-04-12T07:10:14.866Z,99944.81
2023-04-12T07:12:41.938Z,99953.53
2023-04-12T07:15:08.668Z,99945.34
2023-04-12T07:17:35.289Z,99953.63
2023-04-12T07:20:01.671Z,99940.53
2023-04-12T07:22:28.062Z,99933.78
2023-04-12T07:24:54.643Z,99924.06
2023-04-12T07:27:21.029Z,99927.78
2023-04-12T07:29:47.362Z,99924.69
2023-04-12T07:32:13.720Z,99923.13
2023-04-12T07:34:40.365Z,99906.53
2023-04-12T07:37:06.823Z,99910.91
2023-04-12T07:39:34.877Z,99910.09
2023-04-12T07:42:01.725Z,99906.19
2023-04-12T07:44:28.045Z,99894.53
2023-04-12T07:46:54.403Z,99884.19
2023-04-12T07:49:20.803Z,99886.94
2023-04-12T07:51:47.412Z,99887.84
2023-04-12T07:54:13.730Z,99894.06
2023-04-12T07:56:40.038Z,99888.41
2023-04-12T07:59:06.556Z,99883.72
2023-04-12T08:01:32.865Z,99880.41
2023-04-12T08:03:59.312Z,99879.81
2023-04-12T08:06:29.416Z,99875.81
2023-04-12T08:08:57.444Z,99874.81
2023-04-12T08:11:23.970Z,99872.50
2023-04-12T08:13:50.312Z,99871.44
2023-04-12T08:16:16.798Z,99871.25
2023-04-12T08:18:43.158Z,99866.13
2023-04-12T08:21:09.886Z,99858.91
2023-04-12T08:23:36.201Z,99866.50
2023-04-12T08:26:05.470Z,99860.81
2023-04-12T08:28:32.585Z,99858.41
2023-04-12T08:30:59.550Z,99857.63
2023-04-12T08:33:26.149Z,99849.09
2023-04-12T08:35:52.930Z,99849.88
2023-04-12T08:38:20.820Z,99847.38
2023-04-12T08:40:50.311Z,99842.47
2023-04-12T08:43:16.651Z,99844.88
2023-04-12T08:45:43.054Z,99842.66
2023-04-12T08:48:09.452Z,99837.25
2023-04-12T08:50:36.086Z,99835.31
2023-04-12T08:53:02.394Z,99835.16
2023-04-12T08:55:28.869Z,99840.06
2023-04-12T08:57:58.549Z,99833.84
2023-04-12T09:00:25.789Z,99832.28
2023-04-12T09:02:52.591Z,99811.31
2023-04-12T09:05:19.300Z,99822.38
2023-04-12T09:07:45.803Z,99819.72
2023-04-12T09:10:12.070Z,99820.25
2023-04-12T09:12:47.553Z,99808.09
2023-04-12T09:15:15.233Z,99805.75
2023-04-12T09:17:42.263Z,99808.53
2023-04-12T09:20:29.198Z,99790.09
2023-04-12T09:22:55.879Z,99797.78
2023-04-12T09:25:38.499Z,99792.56
2023-04-12T09:28:05.641Z,99780.03
2023-04-12T09:30:33.843Z,99780.09
2023-04-12T09:33:10.557Z,99778.34
2023-04-12T09:35:36.969Z,99770.84
2023-04-12T09:38:09.762Z,99764.22
2023-04-12T09:40:36.471Z,99773.09
2023-04-12T09:43:03.618Z,99756.50
2023-04-12T09:45:31.595Z,99753.44
2023-04-12T09:47:57.977Z,99755.34
2023-04-12T09:50:25.740Z,99749.25
2023-04-12T09:52:52.949Z,99751.94
2023-04-12T09:55:19.275Z,99747.81
2023-04-12T09:57:46.317Z,99743.91
2023-04-12T10:00:17.219Z,99741.16
2023-04-12T10:02:51.573Z,99741.69
2023-04-12T10:05:19.733Z,99743.63
2023-04-12T10:07:46.738Z,99736.50
2023-04-12T10:10:13.637Z,99745.75
2023-04-12T10:12:40.948Z,99727.22
2023-04-12T10:15:12.800Z,99727.69
2023-04-12T10:17:45.190Z,99729.09
2023-04-12T10:20:12.305Z,99729.16
2023-04-12T10:22:39.618Z,99728.66
2023-04-12T10:25:06.834Z,99733.81
2023-04-12T10:27:33.205Z,99727.22
2023-04-12T10:30:18.218Z,99724.75
2023-04-12T10:32:44.637Z,99721.31
2023-04-12T10:35:11.610Z,99727.22
2023-04-12T10:37:56.912Z,99716.13
2023-04-12T10:40:23.211Z,99723.75
2023-04-12T10:42:49.509Z,99710.44
2023-04-12T10:45:31.141Z,99708.47
2023-04-12T10:48:01.902Z,99699.00
2023-04-12T10:50:32.213Z,99696.69
2023-04-12T10:53:15.255Z,99696.97
2023-04-12T10:55:44.588Z,99701.47
2023-04-12T10:58:11.408Z,99704.66
2023-04-12T11:00:59.225Z,99697.03
2023-04-12T11:03:26.320Z,99707.56
2023-04-12T11:06:13.124Z,99701.22
2023-04-12T11:08:46.281Z,99695.31
2023-04-12T11:11:19.469Z,99709.81
2023-04-12T11:13:45.767Z,99692.84
2023-04-12T11:16:15.303Z,99696.28
2023-04-12T11:18:41.768Z,99687.97
2023-04-12T11:21:08.150Z,99689.69
2023-04-12T11:23:36.343Z,99689.66
2023-04-12T11:26:04.003Z,99690.66
2023-04-12T11:28:33.079Z,99690.38
2023-04-12T11:31:01.212Z,99683.50
2023-04-12T11:33:37.424Z,99674.75
2023-04-12T11:36:07.547Z,99669.78
2023-04-12T11:38:34.835Z,99668.81
2023-04-12T11:41:01.242Z,99658.06
2023-04-12T11:43:27.584Z,99663.44
2023-04-12T11:45:58.536Z,99661.69
2023-04-12T11:48:26.607Z,99658.75
2023-04-12T11:51:07.775Z,99658.28
2023-04-12T11:53:37.200Z,99662.94
2023-04-12T11:56:03.545Z,99656.34
2023-04-12T11:58:30.111Z,99659.50
2023-04-12T12:00:57.201Z,99649.22
2023-04-12T12:03:23.834Z,99649.13
2023-04-12T12:05:50.609Z,99648.47
2023-04-12T12:08:17.125Z,99651.13
2023-04-12T12:10:59.974Z,99653.00
2023-04-12T12:13:49.021Z,99646.31
2023-04-12T12:16:15.568Z,99650.19
2023-04-12T12:18:42.748Z,99646.22
2023-04-12T12:21:09.842Z,99644.16
2023-04-12T12:23:36.255Z,99643.28
2023-04-12T12:26:18.535Z,99645.50
2023-04-12T12:28:48.944Z,99644.09
2023-04-12T12:31:18.025Z,99643.13
2023-04-12T12:34:00.352Z,99627.34
2023-04-12T12:36:33.590Z,99623.84
2023-04-12T12:39:07.276Z,99626.47
2023-04-12T12:41:34.026Z,99619.00
2023-04-12T12:44:00.394Z,99620.59
2023-04-12T12:46:34.296Z,99611.34
2023-04-12T12:49:11.046Z,99614.31
2023-04-12T12:51:37.426Z,99609.53
2023-04-12T12:54:03.759Z,99615.88
2023-04-12T12:56:30.216Z,99621.00
2023-04-12T12:58:56.711Z,99621.75
2023-04-12T13:01:23.412Z,99622.63
2023-04-12T13:03:50.110Z,99621.22
2023-04-12T13:06:16.611Z,99616.53
2023-04-12T13:08:42.903Z,99623.91
2023-04-12T13:11:09.225Z,99622.53
2023-04-12T13:13:35.520Z,99622.53
2023-04-12T13:16:01.953Z,99611.94
2023-04-12T13:18:28.423Z,99606.94
2023-04-12T13:20:54.703Z,99631.59
2023-04-12T13:23:21.005Z,99628.88
2023-04-12T13:25:47.436Z,99628.06
2023-04-12T13:28:16.725Z,99624.53
2023-04-12T13:30:43.478Z,99615.59
2023-04-12T13:33:09.875Z,99617.94
2023-04-12T13:35:36.232Z,99620.84
2023-04-12T13:38:02.606Z,99608.94
2023-04-12T13:40:29.188Z,99608.47
2023-04-12T13:42:55.605Z,99613.41
2023-04-12T13:45:22.306Z,99613.06
2023-04-12T13:47:48.726Z,99604.94
2023-04-12T13:50:15.316Z,99601.72
2023-04-12T13:52:41.686Z,99605.53
2023-04-12T13:55:08.420Z,99596.72
2023-04-12T13:57:38.026Z,99595.31
2023-04-12T14:00:04.659Z,99587.50
2023-04-12T14:02:31.654Z,99589.91
2023-04-12T14:04:58.129Z,99587.22
2023-04-12T14:07:24.524Z,99587.38
2023-04-12T14:09:50.879Z,99587.44
2023-04-12T14:12:17.186Z,99582.03
2023-04-12T14:14:43.483Z,99574.25
2023-04-12T14:17:09.885Z,99569.16
2023-04-12T14:19:36.285Z,99572.13
2023-04-12T14:22:02.672Z,99570.69
2023-04-12T14:24:29.033Z,99569.59
2023-04-12T14:26:57.182Z,99570.13
2023-04-12T14:29:23.586Z,99568.31
2023-04-12T14:31:49.883Z,99566.94
2023-04-12T14:34:16.392Z,99572.31
2023-04-12T14:36:42.713Z,99568.00
2023-04-12T14:39:11.275Z,99561.69
2023-04-12T14:41:39.896Z,99565.25
2023-04-12T14:44:06.192Z,99567.09
2023-04-12T14:46:32.646Z,99547.00
2023-04-12T14:49:01.125Z,99549.03
2023-04-12T14:51:32.015Z,99557.06
2023-04-12T14:53:58.704Z,99553.69
2023-04-12T14:56:29.233Z,99544.34
2023-04-12T14:58:56.526Z,99544.06
2023-04-12T15:01:23.536Z,99546.84
2023-04-12T15:03:51.942Z,99535.50
2023-04-12T15:06:19.005Z,99525.06
2023-04-12T15:08:45.767Z,99524.88
2023-04-12T15:11:12.127Z,99534.38
2023-04-12T15:13:40.179Z,99537.03
2023-04-12T15:16:08.785Z,99536.03
2023-04-12T15:21:56.757Z,99535.19
2023-04-12T15:24:23.371Z,99529.78
2023-04-12T15:26:50.832Z,99530.41
2023-04-12T15:29:17.247Z,99525.00
2023-04-12T15:31:43.702Z,99527.50
2023-04-12T15:34:10.417Z,99528.22
2023-04-12T15:36:37.223Z,99538.03
2023-04-12T15:39:04.948Z,99530.19
2023-04-12T15:41:37.076Z,99530.50
2023-04-12T15:44:04.101Z,99533.78
2023-04-12T15:46:30.642Z,99540.22
2023-04-12T15:49:00.163Z,99543.75
2023-04-12T15:51:27.276Z,99532.03
2023-04-12T15:53:53.861Z,99542.22
2023-04-12T15:56:24.125Z,99539.50
2023-04-12T15:58:57.645Z,99544.63
2023-04-12T16:01:24.656Z,99545.81
2023-04-12T16:03:51.457Z,99537.16
2023-04-12T16:06:21.353Z,99538.78
2023-04-12T16:08:48.377Z,99542.28
2023-04-12T16:11:18.088Z,99537.06
2023-04-12T16:13:47.910Z,99541.19
2023-04-12T16:16:15.329Z,99541.53
2023-04-12T16:18:41.983Z,99542.53
2023-04-12T16:21:09.147Z,99547.13
2023-04-12T16:23:36.725Z,99540.34
2023-04-12T16:26:03.255Z,99542.50
2023-04-12T16:28:29.640Z,99545.53
2023-04-12T16:30:56.340Z,99536.22
2023-04-12T16:33:22.754Z,99540.84
2023-04-12T16:35:49.084Z,99546.50
2023-04-12T16:38:17.685Z,99552.25
2023-04-12T16:40:44.156Z,99552.31
2023-04-12T16:43:10.673Z,99555.25
2023-04-12T16:45:37.514Z,99552.97
2023-04-12T16:48:03.879Z,99553.94
2023-04-12T16:50:30.339Z,99560.53
2023-04-12T16:52:56.714Z,99561.13
2023-04-12T16:55:23.089Z,99552.06
2023-04-12T16:57:52.928Z,99546.81
2023-04-12T17:00:20.574Z,99549.84
2023-04-12T17:02:48.496Z,99550.56
2023-04-12T17:05:17.864Z,99547.44
2023-04-12T17:07:47.706Z,99547.72
2023-04-12T17:10:17.018Z,99560.84
2023-04-12T17:12:46.781Z,99562.47
2023-04-12T17:15:16.106Z,99561.09
2023-04-12T17:17:49.822Z,99562.13
2023-04-12T17:20:16.801Z,99559.50
2023-04-12T17:22:43.118Z,99567.06
2023-04-12T17:25:09.852Z,99568.53
2023-04-12T17:27:37.309Z,99573.25
2023-04-12T17:30:04.266Z,99579.34
2023-04-12T17:32:30.701Z,99585.16
2023-04-12T17:34:57.008Z,99580.09
2023-04-12T17:37:23.751Z,99615.97
2023-04-12T17:39:50.468Z,99637.94
2023-04-12T17:42:17.669Z,99641.66
2023-04-12T17:44:44.073Z,99641.31
2023-04-12T17:47:10.366Z,99639.84
2023-04-12T17:49:37.078Z,99649.00
2023-04-12T17:52:03.686Z,99653.22
2023-04-12T17:54:30.549Z,99656.63
2023-04-12T17:56:57.673Z,99667.06
2023-04-12T17:59:24.560Z,99667.25
2023-04-12T18:01:50.979Z,99667.13
2023-04-12T18:04:17.522Z,99677.16
2023-04-12T18:06:43.880Z,99678.63
2023-04-12T18:09:13.232Z,99676.75
2023-04-12T18:11:42.186Z,99680.94
2023-04-12T18:14:11.995Z,99699.44
2023-04-12T18:16:38.790Z,99695.09
2023-04-12T18:19:05.813Z,99697.81
2023-04-12T18:21:32.439Z,99696.00
2023-04-12T18:24:01.006Z,99700.47
2023-04-12T18:26:27.545Z,99701.97
2023-04-12T18:28:54.170Z,99697.91
2023-04-12T18:31:20.614Z,99689.16
2023-04-12T18:33:47.172Z,99702.47
2023-04-12T18:36:13.451Z,99707.44
2023-04-12T18:38:40.467Z,99692.75
2023-04-12T18:41:06.770Z,99689.00
2023-04-12T18:43:33.132Z,99693.09
2023-04-12T18:45:59.480Z,99683.41
2023-04-12T18:48:27.162Z,99680.00
2023-04-12T18:50:53.531Z,99674.16
2023-04-12T18:53:19.836Z,99660.06
2023-04-12T18:55:46.381Z,99671.22
2023-04-12T18:58:13.117Z,99669.13
2023-04-12T19:00:41.417Z,99685.34
2023-04-12T19:03:07.912Z,99688.31
2023-04-12T19:05:37.389Z,99688.94
2023-04-12T19:08:03.903Z,99691.84
2023-04-12T19:10:32.936Z,99687.31
2023-04-12T19:12:59.300Z,99680.97
2023-04-12T19:15:25.674Z,99673.84
2023-04-12T19:17:52.011Z,99683.06
2023-04-12T19:20:18.461Z,99681.00
2023-04-12T19:22:44.777Z,99684.41
2023-04-12T19:25:11.122Z,99684.97
2023-04-12T19:27:38.392Z,99692.13
2023-04-12T19:30:04.953Z,99697.56
2023-04-12T19:32:31.296Z,99693.03
2023-04-12T19:34:57.636Z,99695.13
2023-04-12T19:37:24.171Z,99694.25
2023-04-12T19:39:50.474Z,99695.56
2023-04-12T19:42:17.698Z,99705.72
2023-04-12T19:44:44.061Z,99692.22
2023-04-12T19:47:10.497Z,99693.63
2023-04-12T19:49:37.342Z,99696.34
2023-04-12T19:52:07.469Z,99697.03
2023-04-12T19:54:33.798Z,99695.56
2023-04-12T19:57:00.055Z,99694.06
2023-04-12T19:59:30.692Z,99703.53
2023-04-12T20:01:58.103Z,99706.50
2023-04-12T20:04:24.578Z,99693.06
2023-04-12T20:06:52.266Z,99692.69
2023-04-12T20:09:18.697Z,99696.13
2023-04-12T20:11:45.426Z,99698.69
2023-04-12T20:14:11.736Z,99700.56
2023-04-12T20:16:38.242Z,99714.56
2023-04-12T20:19:04.960Z,99726.03
2023-04-12T20:21:34.356Z,99725.44
2023-04-12T20:24:01.457Z,99722.28
2023-04-12T20:26:27.988Z,99716.69
2023-04-12T20:28:57.321Z,99719.09
2023-04-12T20:31:24.560Z,99718.88
2023-04-12T20:33:51.212Z,99716.56
2023-04-12T20:36:17.493Z,99712.19
2023-04-12T20:38:43.841Z,99693.53
2023-04-12T20:41:10.654Z,99694.03
2023-04-12T20:43:46.480Z,99696.19
2023-04-12T20:46:15.583Z,99696.38
2023-04-12T20:48:46.512Z,99693.50
2023-04-12T20:51:15.895Z,99697.47
2023-04-12T20:53:48.280Z,99694.81
2023-04-12T20:56:14.881Z,99690.19
2023-04-12T20:58:41.819Z,99697.16
2023-04-12T21:01:08.274Z,99701.06
2023-04-12T21:03:35.803Z,99705.38
2023-04-12T21:06:02.427Z,99703.88
2023-04-12T21:08:30.866Z,99705.56
2023-04-12T21:10:58.684Z,99699.00
2023-04-12T21:13:26.429Z,99691.22
2023-04-12T21:15:53.313Z,99691.16
2023-04-12T21:18:20.264Z,99692.75
2023-04-12T21:20:47.545Z,99684.09
2023-04-12T21:23:17.932Z,99683.13
2023-04-12T21:25:45.435Z,99682.38
2023-04-12T21:28:12.451Z,99683.53
2023-04-12T21:30:39.211Z,99678.22
2023-04-12T21:33:05.581Z,99685.19
2023-04-12T21:35:31.919Z,99685.59
2023-04-12T21:37:58.247Z,99689.44
2023-04-12T21:40:24.586Z,99689.44
2023-04-12T21:42:50.858Z,99695.94
2023-04-12T21:45:17.455Z,99690.59
2023-04-12T21:47:44.077Z,99681.72
2023-04-12T21:50:10.728Z,99686.22
2023-04-12T21:52:37.395Z,99693.00
2023-04-12T21:55:04.907Z,99692.44
2023-04-12T21:57:31.838Z,99690.66
2023-04-12T21:59:58.130Z,99685.97
2023-04-12T22:02:25.102Z,99690.88
2023-04-12T22:04:51.554Z,99689.66
2023-04-12T22:07:17.852Z,99690.56
2023-04-12T22:09:44.876Z,99691.13
2023-04-12T22:12:11.963Z,99685.53
2023-04-12T22:14:40.236Z,99691.22
2023-04-12T22:17:06.760Z,99686.84
2023-04-12T22:19:33.136Z,99687.69
2023-04-12T22:21:59.600Z,99688.84
2023-04-12T22:24:26.363Z,99688.78
2023-04-12T22:26:56.154Z,99694.44
2023-04-12T22:29:22.532Z,99699.53
2023-04-12T22:31:48.824Z,99699.56
2023-04-12T22:34:15.250Z,99691.53
2023-04-12T22:36:42.000Z,99693.91
2023-04-12T22:39:10.377Z,99693.38
2023-04-12T22:41:37.904Z,99696.44
2023-04-12T22:44:04.431Z,99708.19
2023-04-12T22:46:33.710Z,99700.22
2023-04-12T22:49:03.335Z,99696.66
2023-04-12T22:51:30.070Z,99696.03
2023-04-12T22:53:57.358Z,99702.94
2023-04-12T22:56:25.384Z,99700.84
2023-04-12T22:58:51.951Z,99704.41
2023-04-12T23:01:18.704Z,99686.28
2023-04-12T23:03:45.829Z,99695.19
2023-04-12T23:06:13.027Z,99695.03
2023-04-12T23:08:39.453Z,99694.75
2023-04-12T23:11:06.281Z,99694.16
2023-04-12T23:13:34.667Z,99687.94
2023-04-12T23:16:05.661Z,99693.13
2023-04-12T23:18:32.775Z,99686.59
2023-04-12T23:21:01.098Z,99683.66
2023-04-12T23:23:27.575Z,99689.56
2023-04-12T23:25:54.811Z,99682.59
2023-04-12T23:28:21.829Z,99689.28
2023-04-12T23:30:49.612Z,99684.81
2023-04-12T23:33:20.850Z,99679.19
2023-04-12T23:35:58.501Z,99682.44
2023-04-12T23:38:32.135Z,99683.03
2023-04-12T23:41:03.962Z,99673.84
2023-04-12T23:43:32.426Z,99671.16
2023-04-12T23:45:58.840Z,99664.63
2023-04-12T23:48:25.382Z,99664.97
2023-04-12T23:50:51.882Z,99673.84
2023-04-12T23:53:19.219Z,99662.56
2023-04-12T23:55:51.053Z,99660.78
2023-04-12T23:58:17.760Z,99661.66
